createdAt,value
2019-05-17T00:02:33.079Z,25.27
2019-05-17T00:05:14.162Z,25.80
2019-05-17T00:07:52.894Z,26.43
2019-05-17T00:10:23.591Z,27.53
2019-05-17T00:12:56.287Z,26.23
2019-05-17T00:15:29.101Z,26.77
2019-05-17T00:17:59.524Z,26.43
2019-05-17T00:20:30.251Z,24.60
2019-05-17T00:23:01.007Z,29.00
2019-05-17T00:25:33.958Z,27.77
2019-05-17T00:28:07.569Z,22.50
2019-05-17T00:30:41.610Z,26.03
2019-05-17T00:33:16.940Z,26.90
2019-05-17T00:35:47.923Z,27.37
2019-05-17T00:38:23.115Z,24.17
2019-05-17T00:40:56.502Z,24.57
2019-05-17T00:43:27.641Z,31.63
2019-05-17T00:46:01.382Z,27.33
2019-05-17T00:48:32.209Z,27.10
2019-05-17T00:51:09.264Z,29.30
2019-05-17T00:53:37.654Z,27.80
2019-05-17T00:56:08.740Z,26.90
2019-05-17T00:58:39.835Z,24.10
2019-05-17T01:01:10.627Z,25.63
2019-05-17T01:03:41.760Z,24.80
2019-05-17T01:06:17.104Z,23.37
2019-05-17T01:09:00.489Z,25.10
2019-05-17T01:11:20.275Z,25.93
2019-05-17T01:13:51.048Z,25.47
2019-05-17T01:16:21.815Z,26.50
2019-05-17T01:18:57.347Z,24.37
2019-05-17T01:21:28.880Z,23.70
2019-05-17T01:24:02.374Z,21.80
2019-05-17T01:26:37.372Z,27.53
2019-05-17T01:29:08.251Z,23.27
2019-05-17T01:31:43.173Z,24.17
2019-05-17T01:34:16.896Z,24.00
2019-05-17T01:36:49.202Z,24.97
2019-05-17T01:39:21.535Z,24.80
2019-05-17T01:41:52.370Z,21.87
2019-05-17T01:44:23.143Z,26.47
2019-05-17T01:46:53.917Z,26.57
2019-05-17T01:49:26.952Z,26.10
2019-05-17T01:51:57.298Z,25.43
2019-05-17T01:54:28.078Z,24.63
2019-05-17T01:56:58.691Z,25.27
2019-05-17T01:59:29.547Z,25.73
2019-05-17T02:02:04.286Z,24.60
2019-05-17T02:04:37.378Z,26.87
2019-05-17T02:07:08.279Z,27.77
2019-05-17T02:09:41.779Z,26.77
2019-05-17T02:12:11.405Z,26.90
2019-05-17T02:14:42.195Z,25.07
2019-05-17T02:17:12.814Z,32.30
2019-05-17T02:19:43.915Z,27.10
2019-05-17T02:22:17.728Z,24.27
2019-05-17T02:24:48.539Z,29.97
2019-05-17T02:27:22.006Z,25.23
2019-05-17T02:29:52.094Z,27.80
2019-05-17T02:32:23.680Z,27.10
2019-05-17T02:34:57.027Z,28.40
2019-05-17T02:37:27.859Z,27.03
2019-05-17T02:40:04.527Z,29.20
2019-05-17T02:42:33.313Z,27.03
2019-05-17T02:45:04.649Z,27.27
2019-05-17T02:47:35.718Z,27.53
2019-05-17T02:50:08.458Z,30.03
2019-05-17T02:52:39.256Z,27.60
2019-05-17T02:55:12.861Z,26.83
2019-05-17T02:57:43.613Z,29.83
2019-05-17T03:00:16.391Z,28.23
2019-05-17T03:02:47.123Z,33.83
2019-05-17T03:05:17.757Z,31.47
2019-05-17T03:07:48.527Z,31.20
2019-05-17T03:10:25.239Z,29.23
2019-05-17T03:12:52.986Z,34.60
2019-05-17T03:17:53.953Z,28.10
2019-05-17T03:20:24.640Z,34.73
2019-05-17T03:22:55.319Z,30.77
2019-05-17T03:25:25.917Z,28.83
2019-05-17T03:27:56.789Z,30.33
2019-05-17T03:30:27.756Z,31.77
2019-05-17T03:32:59.027Z,28.40
2019-05-17T03:35:36.645Z,31.93
2019-05-17T03:38:04.011Z,30.27
2019-05-17T03:41:03.645Z,32.47
2019-05-17T03:43:13.567Z,34.37
2019-05-17T03:45:43.905Z,31.63
2019-05-17T03:48:16.016Z,34.03
2019-05-17T03:50:46.803Z,68.67
2019-05-17T03:53:37.155Z,33.87
2019-05-17T03:56:09.472Z,32.90
2019-05-17T03:58:43.366Z,33.63
2019-05-17T04:01:14.578Z,33.50
2019-05-17T04:03:45.416Z,34.63
2019-05-17T04:06:16.182Z,31.47
2019-05-17T04:08:48.378Z,31.50
2019-05-17T04:11:27.970Z,28.93
2019-05-17T04:13:54.617Z,32.03
2019-05-17T04:16:25.414Z,29.07
2019-05-17T04:18:58.969Z,30.53
2019-05-17T04:21:29.781Z,29.70
2019-05-17T04:24:03.264Z,30.87
2019-05-17T04:26:33.347Z,36.50
2019-05-17T04:29:04.000Z,29.63
2019-05-17T04:31:35.243Z,29.37
2019-05-17T04:34:13.686Z,28.20
2019-05-17T04:36:55.917Z,35.00
2019-05-17T04:39:29.085Z,30.07
2019-05-17T04:42:03.888Z,31.27
2019-05-17T04:44:35.219Z,28.73
2019-05-17T04:47:07.635Z,34.53
2019-05-17T04:49:38.269Z,26.10
2019-05-17T04:52:18.248Z,30.83
2019-05-17T04:54:53.780Z,28.00
2019-05-17T04:57:24.910Z,29.17
2019-05-17T04:59:55.686Z,29.07
2019-05-17T05:02:26.301Z,31.07
2019-05-17T05:04:57.031Z,33.30
2019-05-17T05:07:37.688Z,29.10
2019-05-17T05:10:13.502Z,26.83
2019-05-17T05:12:44.440Z,30.90
2019-05-17T05:15:15.581Z,30.23
2019-05-17T05:17:46.202Z,32.10
2019-05-17T05:20:16.972Z,25.70
2019-05-17T05:22:48.102Z,24.50
2019-05-17T05:25:18.876Z,27.60
2019-05-17T05:27:51.680Z,25.43
2019-05-17T05:30:26.101Z,26.07
2019-05-17T05:32:58.392Z,29.07
2019-05-17T05:35:31.665Z,26.30
2019-05-17T05:38:02.302Z,26.37
2019-05-17T05:40:33.276Z,26.17
2019-05-17T05:43:03.952Z,28.73
2019-05-17T05:45:34.733Z,27.07
2019-05-17T05:48:08.256Z,26.70
2019-05-17T05:50:39.006Z,26.50
2019-05-17T05:53:15.849Z,28.80
2019-05-17T05:55:48.840Z,29.27
2019-05-17T05:58:23.581Z,27.50
2019-05-17T06:01:04.511Z,26.33
2019-05-17T06:03:45.399Z,22.07
2019-05-17T06:06:21.419Z,23.60
2019-05-17T06:08:52.258Z,26.10
2019-05-17T06:11:23.124Z,25.67
2019-05-17T06:13:57.450Z,23.57
2019-05-17T06:16:33.421Z,27.00
2019-05-17T06:19:05.591Z,29.17
2019-05-17T06:21:39.753Z,30.87
2019-05-17T06:24:11.862Z,29.13
2019-05-17T06:26:45.248Z,26.27
2019-05-17T06:29:24.300Z,25.97
2019-05-17T06:31:58.015Z,25.53
2019-05-17T06:34:29.762Z,26.03
2019-05-17T06:37:03.166Z,27.33
2019-05-17T06:39:37.115Z,26.50
2019-05-17T06:42:12.064Z,28.03
2019-05-17T06:44:46.791Z,29.03
2019-05-17T06:47:18.169Z,29.40
2019-05-17T06:49:53.548Z,31.27
2019-05-17T06:52:24.664Z,28.37
2019-05-17T06:54:57.325Z,30.50
2019-05-17T06:57:28.023Z,32.83
2019-05-17T07:00:11.060Z,27.63
2019-05-17T07:02:36.374Z,29.13
2019-05-17T07:05:09.958Z,29.20
2019-05-17T07:07:40.793Z,29.73
2019-05-17T07:10:11.835Z,32.27
2019-05-17T07:12:54.843Z,29.77
2019-05-17T07:15:15.385Z,26.30
2019-05-17T07:17:46.318Z,29.37
2019-05-17T07:20:19.292Z,31.33
2019-05-17T07:22:55.904Z,29.60
2019-05-17T07:25:30.248Z,26.77
2019-05-17T07:28:00.650Z,26.13
2019-05-17T07:30:34.174Z,25.80
2019-05-17T07:33:05.166Z,28.30
2019-05-17T07:35:39.813Z,23.03
2019-05-17T07:38:12.689Z,23.13
2019-05-17T07:40:50.793Z,24.03
2019-05-17T07:43:23.526Z,23.53
2019-05-17T07:45:54.237Z,20.87
2019-05-17T07:48:31.384Z,19.33
2019-05-17T07:51:02.594Z,20.90
2019-05-17T07:53:33.801Z,18.93
2019-05-17T07:56:10.233Z,17.53
2019-05-17T07:58:42.236Z,17.57
2019-05-17T08:01:14.490Z,17.27
2019-05-17T08:03:50.130Z,12.90
2019-05-17T08:06:22.825Z,12.43
2019-05-17T08:09:01.269Z,12.63
2019-05-17T08:11:30.469Z,11.43
2019-05-17T08:14:02.975Z,12.20
2019-05-17T08:16:35.541Z,12.07
2019-05-17T08:19:09.732Z,11.27
2019-05-17T08:21:45.780Z,11.10
2019-05-17T08:24:16.568Z,11.10
2019-05-17T08:26:47.350Z,11.47
2019-05-17T08:29:20.343Z,8.83
2019-05-17T08:31:50.814Z,10.00
2019-05-17T08:34:24.723Z,8.97
2019-05-17T08:36:55.671Z,9.33
2019-05-17T08:39:26.959Z,7.57
2019-05-17T08:42:01.317Z,7.83
2019-05-17T08:44:33.434Z,7.77
2019-05-17T08:47:13.811Z,7.43
2019-05-17T08:49:49.513Z,7.33
2019-05-17T08:52:26.224Z,8.67
2019-05-17T08:55:20.259Z,8.63
2019-05-17T08:58:12.177Z,8.83
2019-05-17T09:00:44.879Z,8.47
2019-05-17T09:03:19.658Z,10.67
2019-05-17T09:05:52.739Z,9.90
2019-05-17T09:08:22.905Z,9.10
2019-05-17T09:10:53.629Z,12.43
2019-05-17T09:13:24.588Z,9.83
2019-05-17T09:16:00.619Z,9.90
2019-05-17T09:18:33.878Z,7.77
2019-05-17T09:21:05.946Z,7.83
2019-05-17T09:23:36.800Z,8.47
2019-05-17T09:26:10.091Z,8.03
2019-05-17T09:28:49.946Z,9.33
2019-05-17T09:31:22.233Z,8.90
2019-05-17T09:34:15.194Z,9.60
2019-05-17T09:37:19.804Z,9.10
2019-05-17T09:39:53.316Z,10.17
2019-05-17T09:42:41.333Z,7.53
2019-05-17T09:45:15.609Z,8.70
2019-05-17T09:47:55.356Z,8.57
2019-05-17T09:50:32.114Z,7.50
2019-05-17T09:53:03.236Z,7.57
2019-05-17T09:55:53.118Z,8.83
2019-05-17T09:58:26.622Z,9.10
2019-05-17T10:01:01.537Z,7.90
2019-05-17T10:03:35.377Z,8.63
2019-05-17T10:06:06.482Z,8.50
2019-05-17T10:08:41.675Z,7.90
2019-05-17T10:11:12.536Z,7.07
2019-05-17T10:13:49.919Z,7.30
2019-05-17T10:16:20.758Z,7.17
2019-05-17T10:18:53.255Z,6.93
2019-05-17T10:21:25.857Z,6.90
2019-05-17T10:23:57.128Z,8.23
2019-05-17T10:26:31.367Z,8.30
2019-05-17T10:29:04.445Z,7.47
2019-05-17T10:31:41.695Z,6.77
2019-05-17T10:34:12.556Z,7.80
2019-05-17T10:36:43.228Z,6.87
2019-05-17T10:39:14.109Z,5.97
2019-05-17T10:41:47.044Z,6.47
2019-05-17T10:44:20.547Z,6.87
2019-05-17T10:46:51.422Z,6.40
2019-05-17T10:49:22.263Z,5.57
2019-05-17T10:52:05.147Z,5.03
2019-05-17T10:54:34.742Z,6.20
2019-05-17T10:57:13.389Z,6.03
2019-05-17T10:59:44.049Z,5.77
2019-05-17T11:02:16.487Z,5.50
2019-05-17T11:04:50.757Z,4.80
2019-05-17T11:07:26.907Z,4.40
2019-05-17T11:10:00.343Z,6.20
2019-05-17T11:12:30.687Z,5.87
2019-05-17T11:15:10.809Z,4.83
2019-05-17T11:17:42.924Z,4.47
2019-05-17T11:20:18.893Z,4.80
2019-05-17T11:22:51.593Z,5.70
2019-05-17T11:25:23.009Z,5.43
2019-05-17T11:27:53.812Z,4.47
2019-05-17T11:30:32.011Z,4.50
2019-05-17T11:33:02.667Z,3.80
2019-05-17T11:35:35.990Z,4.47
2019-05-17T11:38:15.285Z,3.63
2019-05-17T11:40:50.082Z,4.20
2019-05-17T11:43:28.235Z,4.80
2019-05-17T11:46:01.661Z,4.20
2019-05-17T11:48:40.004Z,4.97
2019-05-17T11:51:10.800Z,4.53
2019-05-17T11:53:41.561Z,4.20
2019-05-17T11:56:14.039Z,3.83
2019-05-17T11:59:05.165Z,6.23
2019-05-17T12:01:41.342Z,8.13
2019-05-17T12:04:15.548Z,4.20
2019-05-17T12:06:50.427Z,4.77
2019-05-17T12:09:35.219Z,3.83
2019-05-17T12:11:54.706Z,3.77
2019-05-17T12:14:29.437Z,4.13
2019-05-17T12:17:00.227Z,4.30
2019-05-17T12:19:31.467Z,4.00
2019-05-17T12:22:06.110Z,3.90
2019-05-17T12:24:37.034Z,3.50
2019-05-17T12:27:07.914Z,3.33
2019-05-17T12:29:40.276Z,3.93
2019-05-17T12:32:16.538Z,3.80
2019-05-17T12:34:45.702Z,3.87
2019-05-17T12:37:17.158Z,4.30
2019-05-17T12:39:49.785Z,4.70
2019-05-17T12:42:20.470Z,5.13
2019-05-17T12:44:51.828Z,4.70
2019-05-17T12:47:24.782Z,4.10
2019-05-17T12:49:55.643Z,4.60
2019-05-17T12:52:26.339Z,4.27
2019-05-17T12:54:59.875Z,4.73
2019-05-17T12:57:41.465Z,4.87
2019-05-17T13:00:15.492Z,5.63
2019-05-17T13:02:49.712Z,4.20
2019-05-17T13:05:21.959Z,4.30
2019-05-17T13:08:02.294Z,5.00
2019-05-17T13:10:33.802Z,4.33
2019-05-17T13:13:16.625Z,4.90
2019-05-17T13:15:47.281Z,4.67
2019-05-17T13:18:18.563Z,4.97
2019-05-17T13:20:49.257Z,6.10
2019-05-17T13:23:24.286Z,4.03
2019-05-17T13:26:10.578Z,4.27
2019-05-17T13:28:45.465Z,4.43
2019-05-17T13:31:19.820Z,4.73
2019-05-17T13:33:53.480Z,5.07
2019-05-17T13:36:23.456Z,5.67
2019-05-17T13:38:54.303Z,4.93
2019-05-17T13:41:25.760Z,6.67
2019-05-17T13:44:18.508Z,5.60
2019-05-17T13:47:39.327Z,5.67
2019-05-17T13:50:20.961Z,4.90
2019-05-17T13:53:01.314Z,6.87
2019-05-17T13:55:35.707Z,5.67
2019-05-17T13:58:06.594Z,5.40
2019-05-17T14:00:38.612Z,4.60
2019-05-17T14:03:15.014Z,5.13
2019-05-17T14:05:46.262Z,5.87
2019-05-17T14:08:26.980Z,5.63
2019-05-17T14:11:06.901Z,4.70
2019-05-17T14:13:44.622Z,4.60
2019-05-17T14:16:17.885Z,4.57
2019-05-17T14:18:56.648Z,4.03
2019-05-17T14:21:39.530Z,4.90
2019-05-17T14:24:11.891Z,4.20
2019-05-17T14:26:44.426Z,4.27
2019-05-17T14:29:16.637Z,5.40
2019-05-17T14:31:51.073Z,3.90
2019-05-17T14:34:26.697Z,4.83
2019-05-17T14:37:10.988Z,4.43
2019-05-17T14:39:44.678Z,4.13
2019-05-17T14:42:16.641Z,4.37
2019-05-17T14:44:50.900Z,3.30
2019-05-17T14:47:27.886Z,4.23
2019-05-17T14:49:59.843Z,4.07
2019-05-17T14:52:36.144Z,3.87
2019-05-17T14:55:08.884Z,4.03
2019-05-17T14:57:43.160Z,4.43
2019-05-17T15:00:15.949Z,4.00
2019-05-17T15:02:53.360Z,3.77
2019-05-17T15:05:57.853Z,3.60
2019-05-17T15:08:36.485Z,4.00
2019-05-17T15:11:15.863Z,3.87
2019-05-17T15:13:51.995Z,3.97
2019-05-17T15:16:24.106Z,3.70
2019-05-17T15:18:55.487Z,3.60
2019-05-17T15:21:26.527Z,4.17
2019-05-17T15:24:15.795Z,4.33
2019-05-17T15:27:04.212Z,3.47
2019-05-17T15:29:21.172Z,3.57
2019-05-17T15:31:52.554Z,3.97
2019-05-17T15:34:31.349Z,3.93
2019-05-17T15:37:08.656Z,3.23
2019-05-17T15:39:47.882Z,4.37
2019-05-17T15:42:43.237Z,3.70
2019-05-17T15:45:05.591Z,3.77
2019-05-17T15:47:40.089Z,4.00
2019-05-17T15:50:19.235Z,3.90
2019-05-17T15:53:01.829Z,4.07
2019-05-17T15:58:34.362Z,3.03
2019-05-17T16:01:07.622Z,3.20
2019-05-17T16:04:01.188Z,3.07
2019-05-17T16:06:35.146Z,3.27
2019-05-17T16:09:23.908Z,5.53
2019-05-17T16:11:59.388Z,5.83
2019-05-17T16:14:38.613Z,3.10
2019-05-17T16:17:14.515Z,3.87
2019-05-17T16:19:49.368Z,3.80
2019-05-17T16:22:31.792Z,3.03
2019-05-17T16:28:17.797Z,2.40
2019-05-17T16:31:02.366Z,4.50
2019-05-17T16:33:33.150Z,3.97
2019-05-17T16:36:04.039Z,3.33
2019-05-17T16:38:38.035Z,4.23
2019-05-17T16:42:09.503Z,3.53
2019-05-17T16:44:58.190Z,2.60
2019-05-17T16:47:30.853Z,4.13
2019-05-17T16:50:03.260Z,2.77
2019-05-17T16:52:34.097Z,3.17
2019-05-17T16:55:05.589Z,3.07
2019-05-17T16:57:40.234Z,3.40
2019-05-17T17:00:36.799Z,3.77
2019-05-17T17:03:10.826Z,5.00
2019-05-17T17:05:43.384Z,3.70
2019-05-17T17:08:17.143Z,3.23
2019-05-17T17:10:54.779Z,3.43
2019-05-17T17:13:33.248Z,3.67
2019-05-17T17:16:01.136Z,3.33
2019-05-17T17:18:38.051Z,3.33
2019-05-17T17:21:12.991Z,3.53
2019-05-17T17:23:48.247Z,5.70
2019-05-17T17:26:20.607Z,7.10
2019-05-17T17:28:51.618Z,3.40
2019-05-17T17:31:26.597Z,3.97
2019-05-17T17:34:06.561Z,3.90
2019-05-17T17:36:41.367Z,3.63
2019-05-17T17:39:17.602Z,4.47
2019-05-17T17:41:48.497Z,2.83
2019-05-17T17:44:21.018Z,3.93
2019-05-17T17:46:51.708Z,3.93
2019-05-17T17:49:38.026Z,3.47
2019-05-17T17:52:14.924Z,3.53
2019-05-17T17:54:50.229Z,3.37
2019-05-17T17:57:23.984Z,3.43
2019-05-17T18:00:01.926Z,4.10
2019-05-17T18:02:44.845Z,3.20
2019-05-17T18:05:17.991Z,3.63
2019-05-17T18:07:56.903Z,3.27
2019-05-17T18:10:34.813Z,5.13
2019-05-17T18:13:20.075Z,3.97
2019-05-17T18:15:52.332Z,3.50
2019-05-17T18:18:32.899Z,6.00
2019-05-17T18:21:06.278Z,3.00
2019-05-17T18:23:44.141Z,3.83
2019-05-17T18:26:15.724Z,3.27
2019-05-17T18:28:50.683Z,3.47
2019-05-17T18:31:21.859Z,3.30
2019-05-17T18:33:52.711Z,3.27
2019-05-17T18:36:25.848Z,3.90
2019-05-17T18:38:59.834Z,3.50
2019-05-17T18:41:30.608Z,3.20
2019-05-17T18:44:09.969Z,2.87
2019-05-17T18:46:40.875Z,3.23
2019-05-17T18:49:22.837Z,3.43
2019-05-17T18:52:01.547Z,3.63
2019-05-17T18:54:32.327Z,3.33
2019-05-17T18:57:09.667Z,2.83
2019-05-17T18:59:42.765Z,3.93
2019-05-17T19:02:13.587Z,3.07
2019-05-17T19:04:50.243Z,3.23
2019-05-17T19:07:29.215Z,3.77
2019-05-17T19:10:01.518Z,3.57
2019-05-17T19:12:46.741Z,4.63
2019-05-17T19:15:23.688Z,3.70
2019-05-17T19:17:58.576Z,3.30
2019-05-17T19:20:39.735Z,3.77
2019-05-17T19:23:11.849Z,3.80
2019-05-17T19:25:44.313Z,3.67
2019-05-17T19:28:18.359Z,3.10
2019-05-17T19:30:52.093Z,3.50
2019-05-17T19:33:24.535Z,4.13
2019-05-17T19:35:55.956Z,3.83
2019-05-17T19:38:29.169Z,3.97
2019-05-17T19:41:04.062Z,3.40
2019-05-17T19:43:37.648Z,4.03
2019-05-17T19:46:11.209Z,4.23
2019-05-17T19:48:42.876Z,4.03
2019-05-17T19:51:18.668Z,3.70
2019-05-17T19:53:50.232Z,4.27
2019-05-17T19:56:32.300Z,4.23
2019-05-17T19:59:11.090Z,4.57
2019-05-17T20:01:46.314Z,4.00
2019-05-17T20:04:19.928Z,3.83
2019-05-17T20:06:50.398Z,3.93
2019-05-17T20:09:25.208Z,3.40
2019-05-17T20:11:59.020Z,3.47
2019-05-17T20:14:45.817Z,4.10
2019-05-17T20:17:18.604Z,6.60
2019-05-17T20:19:50.016Z,4.10
2019-05-17T20:22:27.881Z,4.00
2019-05-17T20:25:08.527Z,3.70
2019-05-17T20:27:44.213Z,3.93
2019-05-17T20:30:21.211Z,4.13
2019-05-17T20:32:54.416Z,3.80
2019-05-17T20:35:33.317Z,4.13
2019-05-17T20:38:11.906Z,3.70
2019-05-17T20:40:47.945Z,4.43
2019-05-17T20:43:26.323Z,3.87
2019-05-17T20:46:03.636Z,3.90
2019-05-17T20:48:37.243Z,4.40
2019-05-17T20:51:08.312Z,4.90
2019-05-17T20:53:43.424Z,4.47
2019-05-17T20:56:31.915Z,4.87
2019-05-17T20:58:55.823Z,4.37
2019-05-17T21:01:30.016Z,4.97
2019-05-17T21:04:01.308Z,5.20
2019-05-17T21:06:36.010Z,4.20
2019-05-17T21:09:12.021Z,9.37
2019-05-17T21:11:45.161Z,5.17
2019-05-17T21:14:20.394Z,5.03
2019-05-17T21:16:57.054Z,7.77
2019-05-17T21:19:29.087Z,12.20
2019-05-17T21:22:02.795Z,4.57
2019-05-17T21:24:39.989Z,5.77
2019-05-17T21:27:12.918Z,5.47
2019-05-17T21:29:46.706Z,5.27
2019-05-17T21:32:25.939Z,4.33
2019-05-17T21:35:07.342Z,6.10
2019-05-17T21:37:43.231Z,7.27
2019-05-17T21:40:16.937Z,5.60
2019-05-17T21:42:55.353Z,5.20
2019-05-17T21:45:35.216Z,5.80
2019-05-17T21:48:09.903Z,5.07
2019-05-17T21:50:56.526Z,4.87
2019-05-17T21:53:28.843Z,5.87
2019-05-17T21:56:06.470Z,6.07
2019-05-17T21:58:43.081Z,5.83
2019-05-17T22:01:21.598Z,5.37
2019-05-17T22:03:56.215Z,5.47
2019-05-17T22:06:30.572Z,5.60
2019-05-17T22:09:03.445Z,5.67
2019-05-17T22:11:37.327Z,5.60
2019-05-17T22:14:08.306Z,4.23
2019-05-17T22:16:39.017Z,7.60
2019-05-17T22:19:12.535Z,4.23
2019-05-17T22:21:46.750Z,4.77
2019-05-17T22:24:25.930Z,5.03
2019-05-17T22:27:00.763Z,5.00
2019-05-17T22:29:31.702Z,5.50
2019-05-17T22:32:05.609Z,4.97
2019-05-17T22:34:36.744Z,7.47
2019-05-17T22:50:12.597Z,4.83
2019-05-17T22:52:46.124Z,5.30
2019-05-17T22:55:17.392Z,4.37
2019-05-17T22:58:02.551Z,8.63
2019-05-17T23:00:38.100Z,4.93
2019-05-17T23:03:10.150Z,4.83
2019-05-17T23:05:43.805Z,5.97
2019-05-17T23:08:21.184Z,4.70
2019-05-17T23:11:01.113Z,4.67
2019-05-17T23:13:37.097Z,4.93
2019-05-17T23:16:31.822Z,4.03
2019-05-17T23:19:24.105Z,5.43
2019-05-17T23:22:20.676Z,4.97
2019-05-17T23:25:50.736Z,5.50
2019-05-17T23:28:25.238Z,4.60
2019-05-17T23:31:29.098Z,4.60
2019-05-17T23:34:04.341Z,4.10
2019-05-17T23:36:39.340Z,4.50
2019-05-17T23:39:14.901Z,5.03
2019-05-17T23:41:49.701Z,5.23
2019-05-17T23:44:24.580Z,5.00
2019-05-17T23:47:06.610Z,5.13
2019-05-17T23:49:34.691Z,4.90
2019-05-17T23:52:06.182Z,5.30
2019-05-17T23:54:37.108Z,4.20
2019-05-17T23:57:08.234Z,6.27
2019-05-17T23:59:46.973Z,6.33
